sensor_id;sensor_type;location;lat;lon;timestamp;P1;durP1;ratioP1;P2;durP2;ratioP2
15788;SDS011;59075;50.670;6.474;2022-07-22T05:01:24;770.40;;;714.10;;
15788;SDS011;59075;50.670;6.474;2022-07-22T05:03:51;757.73;;;702.07;;
15788;SDS011;59075;50.670;6.474;2022-07-22T05:06:18;771.47;;;715.17;;
15788;SDS011;59075;50.670;6.474;2022-07-22T05:08:45;761.93;;;706.03;;
15788;SDS011;59075;50.670;6.474;2022-07-22T05:11:12;769.23;;;712.67;;
15788;SDS011;59075;50.670;6.474;2022-07-22T05:13:38;767.20;;;710.97;;
15788;SDS011;59075;50.670;6.474;2022-07-22T05:16:05;766.27;;;709.87;;
15788;SDS011;59075;50.670;6.474;2022-07-22T05:18:34;775.23;;;718.57;;
15788;SDS011;59075;50.670;6.474;2022-07-22T05:21:01;767.30;;;710.87;;
15788;SDS011;59075;50.670;6.474;2022-07-22T05:23:29;765.60;;;709.23;;
15788;SDS011;59075;50.670;6.474;2022-07-22T05:25:55;768.10;;;711.57;;
15788;SDS011;59075;50.670;6.474;2022-07-22T05:28:22;766.30;;;709.97;;
15788;SDS011;59075;50.670;6.474;2022-07-22T05:30:49;774.30;;;717.63;;
15788;SDS011;59075;50.670;6.474;2022-07-22T05:33:15;778.23;;;721.60;;
15788;SDS011;59075;50.670;6.474;2022-07-22T05:35:44;762.83;;;706.90;;
15788;SDS011;59075;50.670;6.474;2022-07-22T05:38:10;766.23;;;710.13;;
15788;SDS011;59075;50.670;6.474;2022-07-22T05:40:37;774.33;;;718.00;;
15788;SDS011;59075;50.670;6.474;2022-07-22T05:43:04;775.17;;;718.80;;
15788;SDS011;59075;50.670;6.474;2022-07-22T05:45:31;772.70;;;716.50;;
15788;SDS011;59075;50.670;6.474;2022-07-22T05:47:58;766.03;;;710.07;;
15788;SDS011;59075;50.670;6.474;2022-07-22T05:50:26;771.17;;;715.03;;
15788;SDS011;59075;50.670;6.474;2022-07-22T05:52:54;775.80;;;719.63;;
15788;SDS011;59075;50.670;6.474;2022-07-22T05:55:20;774.77;;;718.37;;
15788;SDS011;59075;50.670;6.474;2022-07-22T05:57:47;776.00;;;719.60;;
15788;SDS011;59075;50.670;6.474;2022-07-22T06:00:14;773.90;;;717.70;;
15788;SDS011;59075;50.670;6.474;2022-07-22T06:02:41;778.97;;;722.60;;
15788;SDS011;59075;50.670;6.474;2022-07-22T06:05:08;776.20;;;719.90;;
15788;SDS011;59075;50.670;6.474;2022-07-22T06:07:35;771.20;;;714.80;;
15788;SDS011;59075;50.670;6.474;2022-07-22T06:10:03;765.57;;;709.50;;
15788;SDS011;59075;50.670;6.474;2022-07-22T06:12:30;752.27;;;696.60;;
15788;SDS011;59075;50.670;6.474;2022-07-22T06:14:57;783.33;;;725.70;;
15788;SDS011;59075;50.670;6.474;2022-07-22T06:17:24;774.80;;;718.43;;
15788;SDS011;59075;50.670;6.474;2022-07-22T06:19:51;773.53;;;716.87;;
15788;SDS011;59075;50.670;6.474;2022-07-22T06:22:17;776.80;;;720.30;;
15788;SDS011;59075;50.670;6.474;2022-07-22T06:24:44;777.10;;;720.17;;
15788;SDS011;59075;50.670;6.474;2022-07-22T06:27:13;774.73;;;718.37;;
15788;SDS011;59075;50.670;6.474;2022-07-22T06:29:39;768.70;;;712.23;;
15788;SDS011;59075;50.670;6.474;2022-07-22T06:32:06;767.03;;;710.57;;
15788;SDS011;59075;50.670;6.474;2022-07-22T06:34:34;772.57;;;715.90;;
15788;SDS011;59075;50.670;6.474;2022-07-22T06:37:00;776.50;;;719.93;;
15788;SDS011;59075;50.670;6.474;2022-07-22T06:39:27;781.60;;;724.80;;
15788;SDS011;59075;50.670;6.474;2022-07-22T06:41:54;770.73;;;714.20;;
15788;SDS011;59075;50.670;6.474;2022-07-22T06:44:22;770.77;;;714.67;;
15788;SDS011;59075;50.670;6.474;2022-07-22T06:46:49;781.93;;;724.83;;
15788;SDS011;59075;50.670;6.474;2022-07-22T06:49:15;771.83;;;715.27;;
15788;SDS011;59075;50.670;6.474;2022-07-22T06:51:42;758.53;;;702.30;;
15788;SDS011;59075;50.670;6.474;2022-07-22T06:54:09;770.93;;;714.53;;
15788;SDS011;59075;50.670;6.474;2022-07-22T06:56:36;770.77;;;714.07;;
15788;SDS011;59075;50.670;6.474;2022-07-22T06:59:02;776.20;;;719.53;;
15788;SDS011;59075;50.670;6.474;2022-07-22T07:01:30;763.17;;;707.03;;
15788;SDS011;59075;50.670;6.474;2022-07-22T07:03:58;756.70;;;701.00;;
15788;SDS011;59075;50.670;6.474;2022-07-22T07:06:24;761.17;;;704.70;;
15788;SDS011;59075;50.670;6.474;2022-07-22T07:08:51;756.70;;;700.70;;
15788;SDS011;59075;50.670;6.474;2022-07-22T07:11:18;770.17;;;713.93;;
15788;SDS011;59075;50.670;6.474;2022-07-22T07:13:44;760.07;;;704.10;;
15788;SDS011;59075;50.670;6.474;2022-07-22T07:16:11;771.03;;;714.00;;
15788;SDS011;59075;50.670;6.474;2022-07-22T07:18:39;764.20;;;708.13;;
15788;SDS011;59075;50.670;6.474;2022-07-22T07:21:06;763.33;;;707.17;;
15788;SDS011;59075;50.670;6.474;2022-07-22T07:23:33;772.97;;;716.47;;
15788;SDS011;59075;50.670;6.474;2022-07-22T07:25:59;768.27;;;712.07;;
15788;SDS011;59075;50.670;6.474;2022-07-22T07:28:26;772.03;;;715.60;;
15788;SDS011;59075;50.670;6.474;2022-07-22T07:30:53;759.27;;;703.17;;
15788;SDS011;59075;50.670;6.474;2022-07-22T07:33:19;766.20;;;709.93;;
15788;SDS011;59075;50.670;6.474;2022-07-22T07:35:48;762.57;;;706.60;;
15788;SDS011;59075;50.670;6.474;2022-07-22T07:38:15;764.37;;;708.30;;
15788;SDS011;59075;50.670;6.474;2022-07-22T07:40:42;755.70;;;699.53;;
15788;SDS011;59075;50.670;6.474;2022-07-22T07:43:08;760.17;;;704.27;;
15788;SDS011;59075;50.670;6.474;2022-07-22T07:45:35;761.93;;;706.07;;
15788;SDS011;59075;50.670;6.474;2022-07-22T07:48:02;753.10;;;697.33;;
15788;SDS011;59075;50.670;6.474;2022-07-22T07:50:30;750.07;;;694.50;;
15788;SDS011;59075;50.670;6.474;2022-07-22T07:52:58;754.70;;;698.73;;
15788;SDS011;59075;50.670;6.474;2022-07-22T07:55:25;761.73;;;705.87;;
15788;SDS011;59075;50.670;6.474;2022-07-22T07:57:52;751.60;;;695.87;;
15788;SDS011;59075;50.670;6.474;2022-07-22T08:00:24;760.80;;;705.00;;
15788;SDS011;59075;50.670;6.474;2022-07-22T08:02:53;754.97;;;699.27;;
15788;SDS011;59075;50.670;6.474;2022-07-22T08:05:20;772.60;;;716.37;;
15788;SDS011;59075;50.670;6.474;2022-07-22T08:07:47;760.57;;;704.73;;
15788;SDS011;59075;50.670;6.474;2022-07-22T08:10:16;767.70;;;711.57;;
15788;SDS011;59075;50.670;6.474;2022-07-22T08:12:43;763.50;;;707.30;;
15788;SDS011;59075;50.670;6.474;2022-07-22T08:15:10;761.27;;;705.30;;
15788;SDS011;59075;50.670;6.474;2022-07-22T08:17:37;759.33;;;703.40;;
15788;SDS011;59075;50.670;6.474;2022-07-22T08:20:04;747.43;;;692.00;;
15788;SDS011;59075;50.670;6.474;2022-07-22T08:22:31;759.47;;;703.20;;
15788;SDS011;59075;50.670;6.474;2022-07-22T08:24:58;764.67;;;708.17;;
15788;SDS011;59075;50.670;6.474;2022-07-22T08:27:26;763.67;;;707.67;;
15788;SDS011;59075;50.670;6.474;2022-07-22T08:29:53;764.57;;;708.73;;
15788;SDS011;59075;50.670;6.474;2022-07-22T08:32:20;757.53;;;701.80;;
15788;SDS011;59075;50.670;6.474;2022-07-22T08:34:47;767.43;;;710.17;;
15788;SDS011;59075;50.670;6.474;2022-07-22T08:37:14;770.27;;;713.17;;
15788;SDS011;59075;50.670;6.474;2022-07-22T08:39:40;765.13;;;708.97;;
15788;SDS011;59075;50.670;6.474;2022-07-22T08:42:07;773.80;;;717.73;;
15788;SDS011;59075;50.670;6.474;2022-07-22T08:44:35;770.43;;;713.93;;
15788;SDS011;59075;50.670;6.474;2022-07-22T08:47:02;773.03;;;716.70;;
15788;SDS011;59075;50.670;6.474;2022-07-22T08:49:30;776.97;;;720.27;;
15788;SDS011;59075;50.670;6.474;2022-07-22T08:51:57;773.93;;;717.67;;
15788;SDS011;59075;50.670;6.474;2022-07-22T08:54:24;768.23;;;711.77;;
15788;SDS011;59075;50.670;6.474;2022-07-22T08:56:51;781.23;;;724.70;;
15788;SDS011;59075;50.670;6.474;2022-07-22T08:59:18;767.83;;;711.63;;
15788;SDS011;59075;50.670;6.474;2022-07-22T09:04:28;768.33;;;711.90;;
15788;SDS011;59075;50.670;6.474;2022-07-22T09:06:55;774.53;;;718.43;;
15788;SDS011;59075;50.670;6.474;2022-07-22T09:09:29;777.63;;;721.43;;
15788;SDS011;59075;50.670;6.474;2022-07-22T09:12:03;759.90;;;703.87;;
15788;SDS011;59075;50.670;6.474;2022-07-22T09:14:40;766.37;;;710.70;;
15788;SDS011;59075;50.670;6.474;2022-07-22T09:17:22;775.67;;;719.27;;
15788;SDS011;59075;50.670;6.474;2022-07-22T09:19:51;761.43;;;705.63;;
15788;SDS011;59075;50.670;6.474;2022-07-22T09:22:29;769.93;;;713.67;;
15788;SDS011;59075;50.670;6.474;2022-07-22T09:24:58;753.47;;;697.30;;
15788;SDS011;59075;50.670;6.474;2022-07-22T09:27:26;758.60;;;702.73;;
15788;SDS011;59075;50.670;6.474;2022-07-22T09:29:54;770.23;;;714.23;;
15788;SDS011;59075;50.670;6.474;2022-07-22T09:32:22;757.20;;;701.37;;
15788;SDS011;59075;50.670;6.474;2022-07-22T09:34:49;783.03;;;725.67;;
15788;SDS011;59075;50.670;6.474;2022-07-22T09:37:16;758.63;;;702.83;;
15788;SDS011;59075;50.670;6.474;2022-07-22T09:39:43;773.27;;;716.93;;
15788;SDS011;59075;50.670;6.474;2022-07-22T09:42:10;772.17;;;716.03;;
15788;SDS011;59075;50.670;6.474;2022-07-22T09:44:36;776.67;;;720.17;;
15788;SDS011;59075;50.670;6.474;2022-07-22T09:47:03;773.83;;;717.23;;
15788;SDS011;59075;50.670;6.474;2022-07-22T09:49:32;764.57;;;708.63;;
15788;SDS011;59075;50.670;6.474;2022-07-22T09:51:59;773.30;;;716.77;;
15788;SDS011;59075;50.670;6.474;2022-07-22T09:54:27;769.03;;;712.83;;
15788;SDS011;59075;50.670;6.474;2022-07-22T09:56:55;784.30;;;727.33;;
15788;SDS011;59075;50.670;6.474;2022-07-22T09:59:22;771.43;;;714.83;;
15788;SDS011;59075;50.670;6.474;2022-07-22T10:01:50;786.07;;;729.30;;
15788;SDS011;59075;50.670;6.474;2022-07-22T10:04:17;779.47;;;722.73;;
15788;SDS011;59075;50.670;6.474;2022-07-22T10:06:48;775.63;;;719.00;;
15788;SDS011;59075;50.670;6.474;2022-07-22T10:09:17;774.53;;;717.63;;
15788;SDS011;59075;50.670;6.474;2022-07-22T10:11:45;781.63;;;724.43;;
15788;SDS011;59075;50.670;6.474;2022-07-22T10:14:12;775.27;;;718.30;;
15788;SDS011;59075;50.670;6.474;2022-07-22T10:16:40;786.50;;;729.40;;
15788;SDS011;59075;50.670;6.474;2022-07-22T10:19:07;778.43;;;721.90;;
15788;SDS011;59075;50.670;6.474;2022-07-22T10:21:33;779.53;;;722.63;;
15788;SDS011;59075;50.670;6.474;2022-07-22T10:24:09;763.23;;;707.27;;
15788;SDS011;59075;50.670;6.474;2022-07-22T10:26:47;774.50;;;717.90;;
15788;SDS011;59075;50.670;6.474;2022-07-22T10:29:29;791.47;;;734.17;;
15788;SDS011;59075;50.670;6.474;2022-07-22T10:38:00;777.87;;;721.07;;
15788;SDS011;59075;50.670;6.474;2022-07-22T10:40:30;780.63;;;723.67;;
15788;SDS011;59075;50.670;6.474;2022-07-22T10:43:11;784.07;;;727.37;;
15788;SDS011;59075;50.670;6.474;2022-07-22T10:45:40;789.80;;;732.80;;
15788;SDS011;59075;50.670;6.474;2022-07-22T10:48:11;790.13;;;733.23;;
15788;SDS011;59075;50.670;6.474;2022-07-22T10:50:43;792.27;;;735.07;;
15788;SDS011;59075;50.670;6.474;2022-07-22T10:53:13;789.83;;;732.57;;
15788;SDS011;59075;50.670;6.474;2022-07-22T10:58:45;800.23;;;742.60;;
15788;SDS011;59075;50.670;6.474;2022-07-22T11:01:13;793.17;;;735.57;;
15788;SDS011;59075;50.670;6.474;2022-07-22T11:03:41;788.50;;;731.13;;
15788;SDS011;59075;50.670;6.474;2022-07-22T11:06:20;790.20;;;732.83;;
15788;SDS011;59075;50.670;6.474;2022-07-22T11:08:52;800.57;;;742.53;;
15788;SDS011;59075;50.670;6.474;2022-07-22T11:11:41;793.20;;;735.23;;
15788;SDS011;59075;50.670;6.474;2022-07-22T11:14:15;798.00;;;739.73;;
15788;SDS011;59075;50.670;6.474;2022-07-22T11:16:49;794.57;;;736.57;;
15788;SDS011;59075;50.670;6.474;2022-07-22T11:19:21;785.17;;;727.90;;
15788;SDS011;59075;50.670;6.474;2022-07-22T11:21:50;788.40;;;730.70;;
15788;SDS011;59075;50.670;6.474;2022-07-22T11:24:17;799.80;;;741.77;;
15788;SDS011;59075;50.670;6.474;2022-07-22T11:26:47;812.93;;;754.43;;
15788;SDS011;59075;50.670;6.474;2022-07-22T11:29:16;806.17;;;747.73;;
15788;SDS011;59075;50.670;6.474;2022-07-22T11:31:44;793.70;;;735.87;;
15788;SDS011;59075;50.670;6.474;2022-07-22T11:34:11;807.40;;;749.20;;
15788;SDS011;59075;50.670;6.474;2022-07-22T11:36:39;789.63;;;731.67;;
15788;SDS011;59075;50.670;6.474;2022-07-22T11:39:07;807.63;;;749.13;;
15788;SDS011;59075;50.670;6.474;2022-07-22T11:41:35;818.93;;;759.87;;
15788;SDS011;59075;50.670;6.474;2022-07-22T11:44:03;813.77;;;755.10;;
15788;SDS011;59075;50.670;6.474;2022-07-22T11:46:34;811.47;;;753.27;;
15788;SDS011;59075;50.670;6.474;2022-07-22T11:49:02;800.13;;;742.13;;
15788;SDS011;59075;50.670;6.474;2022-07-22T11:51:30;819.20;;;760.40;;
15788;SDS011;59075;50.670;6.474;2022-07-22T11:53:58;814.57;;;755.97;;
15788;SDS011;59075;50.670;6.474;2022-07-22T11:56:25;812.77;;;754.07;;
15788;SDS011;59075;50.670;6.474;2022-07-22T11:58:53;809.73;;;751.00;;
15788;SDS011;59075;50.670;6.474;2022-07-22T12:01:22;811.43;;;752.57;;
15788;SDS011;59075;50.670;6.474;2022-07-22T12:03:51;828.50;;;769.20;;
15788;SDS011;59075;50.670;6.474;2022-07-22T12:06:19;823.87;;;764.33;;
15788;SDS011;59075;50.670;6.474;2022-07-22T12:08:48;816.83;;;757.67;;
15788;SDS011;59075;50.670;6.474;2022-07-22T12:11:16;821.77;;;762.47;;
15788;SDS011;59075;50.670;6.474;2022-07-22T12:13:44;829.73;;;770.30;;
15788;SDS011;59075;50.670;6.474;2022-07-22T12:16:18;825.60;;;766.27;;
15788;SDS011;59075;50.670;6.474;2022-07-22T12:18:52;825.30;;;765.80;;
15788;SDS011;59075;50.670;6.474;2022-07-22T12:21:19;831.53;;;771.83;;
15788;SDS011;59075;50.670;6.474;2022-07-22T12:23:54;826.60;;;767.07;;
15788;SDS011;59075;50.670;6.474;2022-07-22T12:26:40;825.63;;;766.00;;
15788;SDS011;59075;50.670;6.474;2022-07-22T12:29:11;818.07;;;759.10;;
15788;SDS011;59075;50.670;6.474;2022-07-22T12:31:42;814.17;;;755.10;;
15788;SDS011;59075;50.670;6.474;2022-07-22T12:34:09;819.87;;;760.47;;
15788;SDS011;59075;50.670;6.474;2022-07-22T12:36:37;827.60;;;768.13;;
15788;SDS011;59075;50.670;6.474;2022-07-22T12:39:10;838.10;;;778.37;;
15788;SDS011;59075;50.670;6.474;2022-07-22T12:41:44;829.00;;;769.47;;
15788;SDS011;59075;50.670;6.474;2022-07-22T12:44:14;830.03;;;770.57;;
15788;SDS011;59075;50.670;6.474;2022-07-22T12:46:45;838.67;;;778.67;;
15788;SDS011;59075;50.670;6.474;2022-07-22T12:49:13;833.30;;;773.40;;
15788;SDS011;59075;50.670;6.474;2022-07-22T12:51:42;834.23;;;774.57;;
15788;SDS011;59075;50.670;6.474;2022-07-22T12:54:23;828.00;;;768.63;;
15788;SDS011;59075;50.670;6.474;2022-07-22T12:56:50;822.50;;;763.10;;
15788;SDS011;59075;50.670;6.474;2022-07-22T12:59:17;824.47;;;765.07;;
15788;SDS011;59075;50.670;6.474;2022-07-22T13:01:45;846.33;;;785.97;;
15788;SDS011;59075;50.670;6.474;2022-07-22T13:04:13;840.67;;;780.83;;
15788;SDS011;59075;50.670;6.474;2022-07-22T13:06:40;831.60;;;772.10;;
15788;SDS011;59075;50.670;6.474;2022-07-22T13:09:07;846.93;;;787.03;;
15788;SDS011;59075;50.670;6.474;2022-07-22T13:11:34;830.60;;;771.07;;
15788;SDS011;59075;50.670;6.474;2022-07-22T13:14:04;840.60;;;780.70;;
15788;SDS011;59075;50.670;6.474;2022-07-22T13:16:32;841.27;;;781.33;;
15788;SDS011;59075;50.670;6.474;2022-07-22T13:19:00;846.77;;;786.90;;
15788;SDS011;59075;50.670;6.474;2022-07-22T13:21:27;846.27;;;786.43;;
15788;SDS011;59075;50.670;6.474;2022-07-22T13:23:53;846.60;;;786.10;;
15788;SDS011;59075;50.670;6.474;2022-07-22T13:26:20;849.83;;;789.60;;
15788;SDS011;59075;50.670;6.474;2022-07-22T13:28:47;842.67;;;782.80;;
15788;SDS011;59075;50.670;6.474;2022-07-22T13:31:14;841.80;;;781.60;;
15788;SDS011;59075;50.670;6.474;2022-07-22T13:33:41;844.57;;;784.37;;
15788;SDS011;59075;50.670;6.474;2022-07-22T13:36:09;845.23;;;785.60;;
15788;SDS011;59075;50.670;6.474;2022-07-22T13:38:36;844.13;;;784.30;;
15788;SDS011;59075;50.670;6.474;2022-07-22T13:41:03;849.10;;;789.07;;
15788;SDS011;59075;50.670;6.474;2022-07-22T13:43:41;851.70;;;791.27;;
15788;SDS011;59075;50.670;6.474;2022-07-22T13:46:08;849.50;;;789.50;;
15788;SDS011;59075;50.670;6.474;2022-07-22T13:48:35;834.37;;;774.60;;
15788;SDS011;59075;50.670;6.474;2022-07-22T13:51:02;839.40;;;779.63;;
15788;SDS011;59075;50.670;6.474;2022-07-22T13:53:31;839.27;;;779.53;;
15788;SDS011;59075;50.670;6.474;2022-07-22T13:55:58;842.97;;;783.27;;
15788;SDS011;59075;50.670;6.474;2022-07-22T13:58:24;840.23;;;780.60;;
15788;SDS011;59075;50.670;6.474;2022-07-22T14:00:51;851.90;;;791.63;;
15788;SDS011;59075;50.670;6.474;2022-07-22T14:03:18;840.67;;;780.83;;
15788;SDS011;59075;50.670;6.474;2022-07-22T14:05:44;847.27;;;787.23;;
15788;SDS011;59075;50.670;6.474;2022-07-22T14:08:11;842.47;;;782.97;;
15788;SDS011;59075;50.670;6.474;2022-07-22T14:10:39;853.40;;;793.03;;
15788;SDS011;59075;50.670;6.474;2022-07-22T14:13:06;845.27;;;785.33;;
15788;SDS011;59075;50.670;6.474;2022-07-22T14:15:33;853.07;;;792.90;;
15788;SDS011;59075;50.670;6.474;2022-07-22T14:17:59;855.70;;;795.50;;
15788;SDS011;59075;50.670;6.474;2022-07-22T14:20:26;854.20;;;794.20;;
15788;SDS011;59075;50.670;6.474;2022-07-22T14:22:53;852.27;;;792.07;;
15788;SDS011;59075;50.670;6.474;2022-07-22T14:25:19;859.13;;;798.67;;
15788;SDS011;59075;50.670;6.474;2022-07-22T14:27:48;852.60;;;792.43;;
15788;SDS011;59075;50.670;6.474;2022-07-22T14:30:15;848.97;;;789.10;;
15788;SDS011;59075;50.670;6.474;2022-07-22T14:32:42;857.60;;;797.33;;
15788;SDS011;59075;50.670;6.474;2022-07-22T14:35:08;851.30;;;791.10;;
15788;SDS011;59075;50.670;6.474;2022-07-22T14:37:35;842.30;;;782.50;;
15788;SDS011;59075;50.670;6.474;2022-07-22T14:40:03;853.87;;;793.73;;
15788;SDS011;59075;50.670;6.474;2022-07-22T14:42:30;847.03;;;787.20;;
15788;SDS011;59075;50.670;6.474;2022-07-22T14:44:58;859.23;;;798.00;;
15788;SDS011;59075;50.670;6.474;2022-07-22T14:47:25;840.53;;;780.93;;
15788;SDS011;59075;50.670;6.474;2022-07-22T14:49:52;854.90;;;794.90;;
15788;SDS011;59075;50.670;6.474;2022-07-22T14:52:19;838.10;;;778.67;;
15788;SDS011;59075;50.670;6.474;2022-07-22T14:54:45;869.40;;;808.10;;
15788;SDS011;59075;50.670;6.474;2022-07-22T14:57:12;850.73;;;791.03;;
15788;SDS011;59075;50.670;6.474;2022-07-22T14:59:39;839.30;;;779.87;;
15788;SDS011;59075;50.670;6.474;2022-07-22T15:02:07;860.60;;;800.10;;
15788;SDS011;59075;50.670;6.474;2022-07-22T15:04:34;866.97;;;806.53;;
15788;SDS011;59075;50.670;6.474;2022-07-22T15:07:01;865.27;;;804.87;;
15788;SDS011;59075;50.670;6.474;2022-07-22T15:09:28;854.93;;;794.40;;
15788;SDS011;59075;50.670;6.474;2022-07-22T15:11:54;847.53;;;787.47;;
15788;SDS011;59075;50.670;6.474;2022-07-22T15:14:21;854.93;;;794.73;;
15788;SDS011;59075;50.670;6.474;2022-07-22T15:16:48;858.97;;;798.57;;
15788;SDS011;59075;50.670;6.474;2022-07-22T15:19:16;853.20;;;793.33;;
15788;SDS011;59075;50.670;6.474;2022-07-22T15:21:43;855.10;;;794.53;;
15788;SDS011;59075;50.670;6.474;2022-07-22T15:24:12;844.07;;;784.30;;
15788;SDS011;59075;50.670;6.474;2022-07-22T15:26:39;849.53;;;789.20;;
15788;SDS011;59075;50.670;6.474;2022-07-22T15:29:06;856.80;;;796.50;;
15788;SDS011;59075;50.670;6.474;2022-07-22T15:31:32;856.03;;;795.80;;
15788;SDS011;59075;50.670;6.474;2022-07-22T15:33:59;852.57;;;792.30;;
15788;SDS011;59075;50.670;6.474;2022-07-22T15:36:27;847.70;;;787.83;;
15788;SDS011;59075;50.670;6.474;2022-07-22T15:38:55;851.23;;;791.20;;
15788;SDS011;59075;50.670;6.474;2022-07-22T15:41:21;847.63;;;787.60;;
15788;SDS011;59075;50.670;6.474;2022-07-22T15:43:48;851.30;;;791.03;;
15788;SDS011;59075;50.670;6.474;2022-07-22T15:46:15;848.37;;;788.67;;
15788;SDS011;59075;50.670;6.474;2022-07-22T15:48:42;845.43;;;785.67;;
15788;SDS011;59075;50.670;6.474;2022-07-22T15:51:09;855.47;;;795.10;;
15788;SDS011;59075;50.670;6.474;2022-07-22T15:53:38;848.93;;;789.13;;
15788;SDS011;59075;50.670;6.474;2022-07-22T15:56:04;866.47;;;805.97;;
15788;SDS011;59075;50.670;6.474;2022-07-22T15:58:31;846.13;;;786.30;;
15788;SDS011;59075;50.670;6.474;2022-07-22T16:01:16;851.17;;;791.33;;
15788;SDS011;59075;50.670;6.474;2022-07-22T16:03:42;847.10;;;787.30;;
15788;SDS011;59075;50.670;6.474;2022-07-22T16:06:10;849.37;;;789.27;;
15788;SDS011;59075;50.670;6.474;2022-07-22T16:08:39;853.23;;;793.30;;
15788;SDS011;59075;50.670;6.474;2022-07-22T16:11:06;858.67;;;798.27;;
15788;SDS011;59075;50.670;6.474;2022-07-22T16:13:32;851.37;;;791.47;;
15788;SDS011;59075;50.670;6.474;2022-07-22T16:15:59;843.60;;;783.90;;
15788;SDS011;59075;50.670;6.474;2022-07-22T16:18:26;847.93;;;788.37;;
15788;SDS011;59075;50.670;6.474;2022-07-22T16:20:52;855.80;;;795.63;;
15788;SDS011;59075;50.670;6.474;2022-07-22T16:23:20;845.80;;;785.97;;
15788;SDS011;59075;50.670;6.474;2022-07-22T16:25:48;849.47;;;789.73;;
15788;SDS011;59075;50.670;6.474;2022-07-22T16:28:14;847.53;;;787.77;;
15788;SDS011;59075;50.670;6.474;2022-07-22T16:30:41;846.20;;;786.17;;
15788;SDS011;59075;50.670;6.474;2022-07-22T16:33:08;854.63;;;794.57;;
15788;SDS011;59075;50.670;6.474;2022-07-22T16:35:35;855.00;;;794.90;;
15788;SDS011;59075;50.670;6.474;2022-07-22T16:38:02;855.60;;;795.47;;
15788;SDS011;59075;50.670;6.474;2022-07-22T16:40:29;860.17;;;799.93;;
15788;SDS011;59075;50.670;6.474;2022-07-22T16:42:57;854.50;;;794.60;;
15788;SDS011;59075;50.670;6.474;2022-07-22T16:45:24;845.10;;;785.70;;
15788;SDS011;59075;50.670;6.474;2022-07-22T16:47:52;854.83;;;794.63;;
15788;SDS011;59075;50.670;6.474;2022-07-22T16:50:19;848.63;;;788.90;;
15788;SDS011;59075;50.670;6.474;2022-07-22T16:52:48;853.03;;;792.87;;
15788;SDS011;59075;50.670;6.474;2022-07-22T16:55:15;841.33;;;781.90;;
15788;SDS011;59075;50.670;6.474;2022-07-22T16:57:42;841.80;;;782.40;;
15788;SDS011;59075;50.670;6.474;2022-07-22T17:00:10;844.10;;;784.23;;
15788;SDS011;59075;50.670;6.474;2022-07-22T17:02:38;843.97;;;784.37;;
15788;SDS011;59075;50.670;6.474;2022-07-22T17:05:05;836.60;;;777.10;;
15788;SDS011;59075;50.670;6.474;2022-07-22T17:07:32;847.27;;;787.47;;
15788;SDS011;59075;50.670;6.474;2022-07-22T17:09:59;846.80;;;787.10;;
15788;SDS011;59075;50.670;6.474;2022-07-22T17:12:26;847.00;;;787.23;;
15788;SDS011;59075;50.670;6.474;2022-07-22T17:14:53;853.33;;;792.60;;
15788;SDS011;59075;50.670;6.474;2022-07-22T17:17:21;835.63;;;776.37;;
15788;SDS011;59075;50.670;6.474;2022-07-22T17:19:47;849.47;;;789.60;;
15788;SDS011;59075;50.670;6.474;2022-07-22T17:22:14;845.33;;;785.47;;
15788;SDS011;59075;50.670;6.474;2022-07-22T17:24:41;839.83;;;780.37;;
15788;SDS011;59075;50.670;6.474;2022-07-22T17:27:08;842.07;;;782.53;;
15788;SDS011;59075;50.670;6.474;2022-07-22T17:29:34;842.00;;;782.43;;
15788;SDS011;59075;50.670;6.474;2022-07-22T17:32:01;846.33;;;786.70;;
15788;SDS011;59075;50.670;6.474;2022-07-22T17:34:29;831.83;;;772.73;;
15788;SDS011;59075;50.670;6.474;2022-07-22T17:36:56;847.07;;;787.43;;
15788;SDS011;59075;50.670;6.474;2022-07-22T17:39:23;839.87;;;780.27;;
15788;SDS011;59075;50.670;6.474;2022-07-22T17:41:50;839.80;;;780.43;;
15788;SDS011;59075;50.670;6.474;2022-07-22T17:44:16;833.50;;;774.13;;
15788;SDS011;59075;50.670;6.474;2022-07-22T17:46:43;838.37;;;778.83;;
15788;SDS011;59075;50.670;6.474;2022-07-22T17:49:10;842.87;;;783.40;;
15788;SDS011;59075;50.670;6.474;2022-07-22T17:51:38;837.00;;;777.87;;
15788;SDS011;59075;50.670;6.474;2022-07-22T17:54:05;842.73;;;783.30;;
15788;SDS011;59075;50.670;6.474;2022-07-22T17:56:31;832.53;;;773.33;;
15788;SDS011;59075;50.670;6.474;2022-07-22T17:58:58;833.43;;;774.20;;
15788;SDS011;59075;50.670;6.474;2022-07-22T18:01:26;839.87;;;780.63;;
15788;SDS011;59075;50.670;6.474;2022-07-22T18:03:52;836.80;;;777.67;;
15788;SDS011;59075;50.670;6.474;2022-07-22T18:06:19;833.13;;;773.83;;
15788;SDS011;59075;50.670;6.474;2022-07-22T18:08:47;836.00;;;776.90;;
15788;SDS011;59075;50.670;6.474;2022-07-22T18:11:14;847.13;;;787.57;;
15788;SDS011;59075;50.670;6.474;2022-07-22T18:13:40;833.90;;;774.57;;
15788;SDS011;59075;50.670;6.474;2022-07-22T18:16:07;842.37;;;782.83;;
15788;SDS011;59075;50.670;6.474;2022-07-22T18:18:34;835.40;;;776.37;;
15788;SDS011;59075;50.670;6.474;2022-07-22T18:21:01;836.87;;;777.60;;
15788;SDS011;59075;50.670;6.474;2022-07-22T18:23:28;821.10;;;762.40;;
15788;SDS011;59075;50.670;6.474;2022-07-22T18:25:56;829.10;;;770.17;;
15788;SDS011;59075;50.670;6.474;2022-07-22T18:28:24;828.10;;;769.27;;
15788;SDS011;59075;50.670;6.474;2022-07-22T18:30:51;825.97;;;766.90;;
15788;SDS011;59075;50.670;6.474;2022-07-22T18:33:17;823.03;;;764.23;;
15788;SDS011;59075;50.670;6.474;2022-07-22T18:35:44;827.27;;;768.30;;
15788;SDS011;59075;50.670;6.474;2022-07-22T18:38:11;822.03;;;763.23;;
15788;SDS011;59075;50.670;6.474;2022-07-22T18:40:37;812.07;;;754.07;;
15788;SDS011;59075;50.670;6.474;2022-07-22T18:43:05;818.90;;;760.40;;
15788;SDS011;59075;50.670;6.474;2022-07-22T18:45:32;824.47;;;765.77;;
15788;SDS011;59075;50.670;6.474;2022-07-22T18:47:59;818.20;;;759.67;;
15788;SDS011;59075;50.670;6.474;2022-07-22T18:50:25;832.83;;;773.77;;
15788;SDS011;59075;50.670;6.474;2022-07-22T18:52:53;821.70;;;763.00;;
15788;SDS011;59075;50.670;6.474;2022-07-22T18:55:22;818.87;;;760.47;;
15788;SDS011;59075;50.670;6.474;2022-07-22T18:57:48;815.97;;;757.30;;
15788;SDS011;59075;50.670;6.474;2022-07-22T19:00:18;821.27;;;762.60;;
15788;SDS011;59075;50.670;6.474;2022-07-22T19:02:45;834.07;;;775.07;;
15788;SDS011;59075;50.670;6.474;2022-07-22T19:05:11;825.50;;;766.57;;
15788;SDS011;59075;50.670;6.474;2022-07-22T19:07:39;815.63;;;757.20;;
15788;SDS011;59075;50.670;6.474;2022-07-22T19:10:06;823.40;;;765.00;;
15788;SDS011;59075;50.670;6.474;2022-07-22T19:12:34;819.73;;;761.33;;